createdAt,value
2023-03-23T15:59:52.219Z,2.50
2023-03-23T16:02:21.381Z,3.17
2023-03-23T16:04:48.440Z,3.33
2023-03-23T16:07:14.901Z,2.60
2023-03-23T16:09:42.526Z,3.65
2023-03-23T16:12:13.451Z,3.28
2023-03-23T16:14:40.494Z,3.20
2023-03-23T16:17:07.467Z,3.15
2023-03-23T16:19:34.171Z,2.83
2023-03-23T16:22:00.497Z,2.97
2023-03-23T16:24:26.859Z,2.78
2023-03-23T16:26:53.202Z,2.95
2023-03-23T16:29:36.992Z,2.95
2023-03-23T16:32:06.677Z,3.13
2023-03-23T16:34:35.452Z,2.78
2023-03-23T16:37:02.114Z,2.80
2023-03-23T16:39:28.496Z,3.22
2023-03-23T16:41:54.826Z,2.53
2023-03-23T16:44:21.140Z,3.33
2023-03-23T16:46:47.470Z,2.67
2023-03-23T16:49:13.782Z,3.08
2023-03-23T16:51:41.688Z,2.97
2023-03-23T16:54:08.843Z,3.40
2023-03-23T16:56:35.248Z,3.65
2023-03-23T16:59:01.718Z,3.20
2023-03-23T17:01:28.058Z,3.85
2023-03-23T17:03:55.667Z,3.63
2023-03-23T17:06:22.077Z,3.58
2023-03-23T17:08:48.432Z,3.08
2023-03-23T17:11:14.872Z,3.75
2023-03-23T17:13:42.054Z,3.20
2023-03-23T17:16:08.764Z,3.15
2023-03-23T17:18:35.710Z,2.83
2023-03-23T17:21:02.096Z,2.97
2023-03-23T17:23:28.612Z,3.22
2023-03-23T17:25:55.523Z,3.20
2023-03-23T17:28:22.059Z,3.35
2023-03-23T17:30:48.717Z,3.45
2023-03-23T17:33:15.317Z,2.85
2023-03-23T17:35:42.330Z,3.03
2023-03-23T17:38:09.217Z,2.97
2023-03-23T17:40:35.736Z,2.85
2023-03-23T17:43:02.631Z,2.97
2023-03-23T17:45:29.055Z,2.88
2023-03-23T17:47:55.729Z,3.13
2023-03-23T17:50:22.159Z,3.15
2023-03-23T17:52:49.748Z,2.92
2023-03-23T17:55:16.323Z,3.00
2023-03-23T17:57:44.066Z,3.50
2023-03-23T18:00:12.150Z,2.60
2023-03-23T18:02:38.738Z,2.80
2023-03-23T18:05:06.326Z,2.58
2023-03-23T18:07:32.644Z,3.63
2023-03-23T18:09:59.824Z,2.50
2023-03-23T18:12:26.445Z,2.50
2023-03-23T18:14:56.561Z,2.88
2023-03-23T18:17:22.991Z,2.90
2023-03-23T18:19:49.379Z,2.60
2023-03-23T18:22:16.106Z,2.60
2023-03-23T18:24:42.519Z,2.65
2023-03-23T18:27:08.913Z,2.70
2023-03-23T18:29:35.273Z,3.03
2023-03-23T18:32:01.697Z,2.70
2023-03-23T18:34:28.068Z,3.33
2023-03-23T18:36:54.368Z,2.53
2023-03-23T18:39:20.725Z,3.97
2023-03-23T18:41:47.025Z,2.60
2023-03-23T18:44:13.378Z,3.30
2023-03-23T18:46:39.897Z,2.83
2023-03-23T18:49:06.408Z,2.55
2023-03-23T18:51:32.780Z,3.60
2023-03-23T18:53:59.221Z,3.20
2023-03-23T18:56:28.467Z,3.70
2023-03-23T18:58:56.194Z,3.50
2023-03-23T19:01:22.748Z,4.00
2023-03-23T19:03:49.198Z,3.70
2023-03-23T19:06:18.700Z,3.63
2023-03-23T19:08:45.796Z,4.57
2023-03-23T19:11:13.218Z,3.20
2023-03-23T19:13:47.105Z,3.38
2023-03-23T19:16:20.812Z,4.32
2023-03-23T19:18:48.570Z,3.95
2023-03-23T19:21:18.012Z,3.95
2023-03-23T19:23:46.372Z,5.90
2023-03-23T19:26:18.731Z,4.20
2023-03-23T19:29:21.455Z,4.50
2023-03-23T19:31:32.007Z,4.43
2023-03-23T19:33:58.554Z,5.40
2023-03-23T19:36:26.563Z,5.05
2023-03-23T19:38:54.711Z,5.22
2023-03-23T19:41:21.782Z,5.43
2023-03-23T19:43:48.337Z,4.95
2023-03-23T19:46:14.814Z,5.53
2023-03-23T19:48:41.414Z,5.50
2023-03-23T19:51:09.296Z,5.65
2023-03-23T19:53:36.188Z,6.45
2023-03-23T19:56:05.312Z,4.82
2023-03-23T19:58:32.465Z,5.70
2023-03-23T20:01:00.450Z,5.95
2023-03-23T20:03:27.008Z,5.57
2023-03-23T20:05:59.189Z,6.40
2023-03-23T20:08:25.858Z,4.55
2023-03-23T20:10:53.332Z,5.57
2023-03-23T20:13:19.700Z,5.55
2023-03-23T20:15:51.385Z,5.28
2023-03-23T20:18:20.098Z,6.17
2023-03-23T20:20:50.074Z,5.00
2023-03-23T20:23:18.738Z,6.75
2023-03-23T20:25:45.246Z,5.55
2023-03-23T20:28:11.832Z,4.97
2023-03-23T20:30:43.447Z,4.88
2023-03-23T20:33:12.833Z,5.53
2023-03-23T20:35:39.993Z,5.32
2023-03-23T20:38:07.873Z,4.53
2023-03-23T20:40:34.339Z,4.15
2023-03-23T20:43:01.202Z,5.07
2023-03-23T20:45:27.523Z,4.60
2023-03-23T20:47:54.047Z,4.95
2023-03-23T20:50:20.443Z,5.00
2023-03-23T20:52:47.955Z,4.85
2023-03-23T20:55:15.307Z,6.03
2023-03-23T20:57:42.103Z,7.53
2023-03-23T21:00:09.525Z,5.75
2023-03-23T21:02:40.402Z,5.28
2023-03-23T21:05:06.757Z,5.00
2023-03-23T21:07:33.355Z,4.18
2023-03-23T21:10:00.177Z,4.50
2023-03-23T21:12:27.086Z,5.00
2023-03-23T21:14:53.614Z,5.03
2023-03-23T21:17:19.958Z,4.53
2023-03-23T21:19:48.150Z,4.95
2023-03-23T21:22:18.235Z,4.88
2023-03-23T21:24:46.426Z,4.50
2023-03-23T21:27:12.850Z,4.75
2023-03-23T21:29:39.283Z,4.82
2023-03-23T21:32:08.738Z,4.75
2023-03-23T21:34:36.607Z,5.07
2023-03-23T21:37:04.805Z,4.95
2023-03-23T21:39:31.575Z,5.13
2023-03-23T21:41:59.476Z,5.07
2023-03-23T21:44:26.150Z,5.22
2023-03-23T21:46:55.186Z,4.57
2023-03-23T21:49:21.676Z,4.78
2023-03-23T21:51:50.463Z,4.82
2023-03-23T21:54:17.200Z,4.45
2023-03-23T21:56:43.591Z,5.60
2023-03-23T21:59:10.109Z,4.80
2023-03-23T22:01:36.929Z,5.72
2023-03-23T22:04:04.208Z,4.47
2023-03-23T22:06:34.423Z,4.50
2023-03-23T22:09:02.082Z,4.40
2023-03-23T22:11:29.435Z,5.40
2023-03-23T22:13:56.894Z,4.35
2023-03-23T22:16:23.935Z,4.60
2023-03-23T22:18:52.355Z,5.20
2023-03-23T22:21:19.714Z,4.40
2023-03-23T22:23:47.465Z,4.35
2023-03-23T22:26:14.611Z,4.25
2023-03-23T22:28:41.385Z,4.35
2023-03-23T22:31:09.772Z,3.83
2023-03-23T22:33:37.111Z,4.95
2023-03-23T22:36:06.328Z,4.63
2023-03-23T22:38:33.714Z,3.72
2023-03-23T22:41:02.317Z,4.10
2023-03-23T22:43:28.852Z,3.88
2023-03-23T22:45:55.347Z,4.50
2023-03-23T22:48:22.779Z,4.13
2023-03-23T22:50:49.326Z,4.07
2023-03-23T22:53:16.551Z,4.38
2023-03-23T22:55:47.474Z,4.70
2023-03-23T22:58:14.458Z,3.80
2023-03-23T23:00:42.951Z,4.40
2023-03-23T23:03:09.592Z,4.32
2023-03-23T23:05:40.469Z,4.43
2023-03-23T23:08:06.958Z,4.00
2023-03-23T23:10:34.501Z,3.67
2023-03-23T23:13:01.183Z,4.28
2023-03-23T23:15:27.601Z,5.28
2023-03-23T23:17:54.756Z,4.05
2023-03-23T23:20:21.161Z,4.20
2023-03-23T23:22:47.513Z,3.83
2023-03-23T23:25:13.880Z,4.32
2023-03-23T23:27:40.367Z,4.00
2023-03-23T23:30:08.431Z,4.55
2023-03-23T23:32:36.462Z,4.35
2023-03-23T23:35:03.947Z,3.88
2023-03-23T23:37:30.316Z,3.45
2023-03-23T23:39:56.711Z,3.92
2023-03-23T23:42:25.608Z,4.13
2023-03-23T23:44:52.107Z,4.80
2023-03-23T23:47:18.437Z,4.22
2023-03-23T23:49:44.778Z,4.03
2023-03-23T23:52:11.397Z,3.92
2023-03-23T23:54:37.800Z,3.70
2023-03-23T23:57:04.516Z,4.35
2023-03-23T23:59:31.448Z,3.65
